EBBT #3 - Les Cimes de Waimes
VTT Waimes, 01/05/2008, BEL
Les Cimes de Waimes - Classement à l'arrivée
71km 
Catégorie
PosNrNomAgeIOCEquipeRéelTempsTkmMoy.RangNomLocalité
1.2AL Thijs28NED2:53:232:53:292:27 24.561SENELSTTéléchargez votre diplome!
2.48VERMEULEN Nicolas24BELLINGIER VERSLU2:56:212:56:222:30 24.152SENZEVENEKENTéléchargez votre diplome!
3.381DE KNEGT Gerben33NEDRABOBANK2:56:212:56:282:30 24.141M1Téléchargez votre diplome!
4.5HENDERIECKX Kris31BELK.W.C. HEIST 3:01:013:01:012:33 23.542M1BELSELETéléchargez votre diplome!
5.15JACOBS Gody28BELJANSSEN CYCLING3:04:243:04:252:36 23.103SENGENKTéléchargez votre diplome!
6.3VAN HECKE Bart23BELLINGIER VERSLU3:05:073:05:072:37 23.014SENKALKENTéléchargez votre diplome!
7.1RONDELEZ Bjorn32BELLINGIER VERSLU3:06:363:06:392:38 22.823M1KOEKELARETéléchargez votre diplome!
8.387BEKKENK Ramses32NED3:06:523:06:542:38 22.794M1BROEK OP LANGEDIJKTéléchargez votre diplome!
9.4HERTSENS Kris39BELLINGIER VERSLU3:08:213:08:212:40 22.625M1SINT-NIKLAASTéléchargez votre diplome!
10.66CLAES Frans25BELVLAAMS BRABANTS3:10:033:10:092:41 22.415SENHEVERLEETéléchargez votre diplome!
11.519DE NEF Kris32BELCYCLING TEAM CR3:11:113:11:142:42 22.286M1GENKTéléchargez votre diplome!
12.10LAPERE Kris33BELMEZ TEAM BELGIU3:11:153:11:152:42 22.287M1ZONNEBEKETéléchargez votre diplome!
13.9BOMANS Kristof25BELJANSSEN CYCLING3:11:183:11:182:42 22.276SENHOUTHALENTéléchargez votre diplome!
14.111VAN DE WAARSENBURG Winand32NED3:12:193:12:302:43 22.138M1Téléchargez votre diplome!
15.61PEETERS Erik31BELAFDELING ANTWER3:12:423:12:532:43 22.099M1VEERLE-LAAKDALTéléchargez votre diplome!
16.415JANSSENS Kris35BELAVIA CYCLING TE3:13:453:13:482:44 21.9810M1STEKENETéléchargez votre diplome!
17.72VAN PEER Joris30BELW.C. VOS SPORTI3:14:393:14:392:45 21.8911M1ZANDHOVENTéléchargez votre diplome!
18.7GABRIEL Ferdinand39BELDISTRICAR3:15:293:15:312:46 21.7912M1WAIMESTéléchargez votre diplome!
19.414LENNERTZ Sam18BELCYCLING TEAM CR3:17:163:18:022:48 21.511JUNBORGLOONTéléchargez votre diplome!
20.46PARYS Telly30BELGOEMAN SCOTT CY3:18:073:18:072:48 21.5013M1TERVURENTéléchargez votre diplome!
21.14SLECHTEN Johan31BELJANSSEN CYCLING3:19:293:19:332:49 21.3514M1BILZENTéléchargez votre diplome!
22.17MONFORT Jean-Marc41BELSECTION LIEGEOI3:20:143:20:142:50 21.281M2MEMBACHTéléchargez votre diplome!
23.58HOEKS Tom25BELKRIEKEL CYCLING3:20:083:20:152:50 21.277SENLOMMELTéléchargez votre diplome!
24.135FVAN ROOY Elsbeth35NED3:20:103:20:172:50 21.271DAMTéléchargez votre diplome!
25.116MUYLAERT Lieven31BELRUDYCO CYCLING 3:20:313:20:432:50 21.2215M1TEMSETéléchargez votre diplome!
26.551HOSSAY Pascal21BELTEAM RSP - RAVX3:21:403:21:452:51 21.128SENBATTICETéléchargez votre diplome!
27.21DETAILLE Marc46BELARDENNES MOUNTA3:21:463:21:472:51 21.112M2SPATéléchargez votre diplome!
28.512VAN AELBROECK Michiel22BELVC ARDENNES3:21:393:21:472:51 21.119SENTéléchargez votre diplome!
29.448WIJCKMANS Kristof31BEL3:21:563:22:322:52 21.0316M1Téléchargez votre diplome!
30.485RAUSCH Joschy23NEDKONA3:22:153:22:552:52 21.0010SENTéléchargez votre diplome!
31.117KIELICH Dirk36BELTEAM PROFILE GA3:23:203:23:332:53 20.9317M1ALKENTéléchargez votre diplome!
32.13HEYMANS Stefaan42BEL3:23:313:23:352:53 20.933M2MECHELENTéléchargez votre diplome!
33.100SMEYERS Eli23BELK.W.C. HEIST 3:24:263:24:312:53 20.8311SENGEELTéléchargez votre diplome!
34.393HANKART David32BEL3:24:293:24:312:53 20.8318M1DONCEELTéléchargez votre diplome!
35.241LAURYSSEN Bart35BELMTB23103:24:263:24:342:53 20.8319M1RIJKEVORSELTéléchargez votre diplome!
36.39WAECKENS Wim33BEL3:24:363:24:362:53 20.8220M1LOVENJOELTéléchargez votre diplome!
37.405VANHERCK Geert37BELJANSSEN CYCLING3:24:483:24:492:54 20.8021M1HOUTHALENTéléchargez votre diplome!
38.469MOLENSCHOT Robert25NED3:24:163:25:002:54 20.7812SENTéléchargez votre diplome!
39.465REITZ Guenter42GERTEAM FIREBIKE3:24:333:25:002:54 20.784M2Téléchargez votre diplome!
40.259BOGAERT Vaast38BEL3:26:253:26:422:55 20.6122M1WILRIJKTéléchargez votre diplome!
41.398HUPPERETZ Simon19BELCORRATEC-REUTER3:27:013:27:012:55 20.5813SENMALMEDYTéléchargez votre diplome!
42.80VAN HAASTER Koen20NED3:26:593:27:112:56 20.5614SENALKMAARTéléchargez votre diplome!
43.6BALLMANN Dany38BELEBBT3:27:203:27:202:56 20.5523M1MALMEDYTéléchargez votre diplome!
44.445DE REUSE Christophe35BELGRANVILLE-MORGA3:26:553:27:262:56 20.5424M1EREMBODEGEMTéléchargez votre diplome!
45.57CALONNE Erwin34BEL3:27:213:27:342:56 20.5225M1Téléchargez votre diplome!
46.148MASSONET Dominique31BEL3:27:193:27:352:56 20.5226M1Téléchargez votre diplome!
47.86THIJS Filip35BELAFDELING ANTWER3:28:023:28:172:57 20.4527M1MOLTéléchargez votre diplome!
48.263HABETS Jean47NEDCYCLES JEAN HAB3:28:073:28:192:57 20.455M2ST.GEERTRUIDTéléchargez votre diplome!
49.8TAELMAN Franky43BELK.W.C. HEIST 3:28:333:28:342:57 20.436M2ZELZATETéléchargez votre diplome!
50.74PEETERS Johan34BELK.W.C. HEIST 3:28:313:28:362:57 20.4228M1BORNEMTéléchargez votre diplome!
DNF: abandon; DSQ: disqualifié; Vitesse en km/h
20/01/2020 - 12:38 - 520 Entrées
ChronoRace - Electronic Timing SPRL
http://www.chronorace.be

Page 1 / 11  
EBBT #3 - Les Cimes de Waimes
VTT Waimes, 01/05/2008, BEL
Les Cimes de Waimes - Classement à l'arrivée
71km 
Catégorie
PosNrNomAgeIOCEquipeRéelTempsTkmMoy.RangNomLocalité
51.30STOCKX Gunther33DC CONSTRUCT3:28:383:28:402:57 20.4229M1ATTENRODETéléchargez votre diplome!
52.113WYBOUW Bram25BEL3:28:393:28:452:57 20.4115SENMECHELENTéléchargez votre diplome!
53.422VANDEWINKEL Remi37BELCYCLO BIKE LIMB3:28:073:28:462:57 20.4130M1Téléchargez votre diplome!
54.470WINDMOLDERS Roan29BEL3:28:093:28:542:57 20.3916SENTéléchargez votre diplome!
55.441PARDAENS Maarten34BELDC-CONTRUCT3:29:503:30:232:58 20.2531M1KESSEL-LOTéléchargez votre diplome!
56.433SMITS Tim37BELTEAM SAECO3:29:533:30:362:58 20.2332M1BEGIJNENDIJKTéléchargez votre diplome!
57.547BYNENS Damien26BELSECTION LIEGEOI3:30:473:30:532:59 20.2017SENLIERSTéléchargez votre diplome!
58.527VAN DEN PLAS Tom38BEL3:30:483:31:292:59 20.1433M1LICHTAARTTéléchargez votre diplome!
59.159VAN DER VOSSEN Jeroen30NEDNOORDBIKERS3:31:253:31:382:59 20.1334M1LISSERBROEKTéléchargez votre diplome!
60.47BROUNS Emmanuel34BELSECTION HENNUYE3:32:133:32:203:00 20.0635M1JUMETTéléchargez votre diplome!
61.118EUGENE Guillaume24BELSECTION NAMUROI3:31:493:32:253:00 20.0618SENSPYTéléchargez votre diplome!
62.520CORBEELS Kurt36BELMTB TEAM LANGDO3:31:563:32:343:00 20.0436M1AARSCHOTTéléchargez votre diplome!
63.103VAN DONINK Jan40BELMBK - DELSOL TE3:32:463:32:563:00 20.017M2HERENTALSTéléchargez votre diplome!
64.128HENRIOT Geoffray35BELASBL RED BIKERS3:33:013:33:083:01 19.9937M1TINTIGNYTéléchargez votre diplome!
65.11VANLANGENAEKER Paul46BELTEAM PROFILE GA3:33:083:33:083:01 19.998M2STEVOORTTéléchargez votre diplome!
66.63BOETENS Matthias17BELK.V.C. DEINZE V3:32:533:33:093:01 19.992JUNDEINZETéléchargez votre diplome!
67.136VAN DER SANDEN Nard23NED3:33:033:33:273:01 19.9619SENEINDHOVENTéléchargez votre diplome!
68.440ROSSIGNOL Dirk45BELAFFLIGEMS WIELE3:33:323:34:033:01 19.909M2AFFLIGEMTéléchargez votre diplome!
69.73MARCUS Kluth34GERKLEVER-FAHRRADP3:34:293:34:393:02 19.8538M1WESELTéléchargez votre diplome!
70.237DE CNUYDT Dimitri25BEL3:35:053:35:173:02 19.7920SENDE PINTETéléchargez votre diplome!
71.19BLAISE Alain42BELEBBT3:35:433:35:443:03 19.7510M2MALMEDYTéléchargez votre diplome!
72.157HAESEVOETS Tim30BELBIKE-SHOP-DIEST3:35:363:35:463:03 19.7439M1HAMTéléchargez votre diplome!
73.436KERCKHOFS Rory23BEL3:36:013:36:333:03 19.6721SENMEERHOUTTéléchargez votre diplome!
74.559DE ROOVER Gert29BELAFDELING OOST-V3:36:113:37:173:04 19.6122SENLOKERENTéléchargez votre diplome!
75.197KOVACS Jan46BEL3:37:083:37:283:04 19.5911M2LEESTTéléchargez votre diplome!
76.409VANDEN BON Jurgen29BEL3:38:283:39:063:06 19.4423SENTéléchargez votre diplome!
77.109FILEZ Nico36BELXCLUZIV CYCLING3:39:133:39:183:06 19.4340M1MEULEBEKETéléchargez votre diplome!
78.565BEULENS David25BELWIELERSPORTVERE3:37:453:39:203:06 19.4224SENOUDEGEMTéléchargez votre diplome!
79.77DE PAUW Gerrit29BELPACHTHOFVRIENDE3:39:023:39:223:06 19.4225SENDUISBURGTéléchargez votre diplome!
80.59APPERMANS Steve31BELJANSSEN CYCLING3:39:283:39:323:06 19.4141M1DIEPENBEEKTéléchargez votre diplome!
81.475BRENKERS Mario35BEL3:38:553:39:323:06 19.4042M1Téléchargez votre diplome!
82.88SMEKENS Jan35BELVANOMOBIL MTB C3:38:593:39:343:06 19.4043M1ST GILLIS WAASTéléchargez votre diplome!
83.40DORTU Fabrice31BELSECTION LIEGEOI3:39:313:39:353:06 19.4044M1SOUMAGNETéléchargez votre diplome!
84.70LASLOP Horst41GERROSSBACH/TEAM V3:39:193:39:443:06 19.3912M2GROSS GERAUTéléchargez votre diplome!
85.67BIRONT Martijn32BELVLAAMS-BRABANTS3:39:193:39:533:06 19.3745M1SINT JORIS WEERTTéléchargez votre diplome!
86.129NICHELE Gabriel41BELSECTION NAMUROI3:39:343:39:583:06 19.3713M2BIESMETéléchargez votre diplome!
87.28BRASSEUR Vincent41BELBLANCS GILETS 3:39:523:39:593:06 19.3714M2BRUXELLESTéléchargez votre diplome!
88.239KOKX Herve52BELLILSE BIKERS3:40:543:40:553:07 19.281M3LILLETéléchargez votre diplome!
89.26BROCKHOVEN Louis54BEL3:41:333:41:373:08 19.222M3BERINGENTéléchargez votre diplome!
90.121HERMANS Werner38BELAFDELING ANTWER3:41:343:41:433:08 19.2146M1GROBBENDONKTéléchargez votre diplome!
91.396TAS Patrick39BELGRANVILLE-MORGA3:42:533:42:563:09 19.1147M1OEDELEMTéléchargez votre diplome!
92.540DE LIE Philippe39BELWINDOSE HOUFFAL3:42:413:43:173:09 19.0848M1JUSERETTéléchargez votre diplome!
93.260SZRAUCNER Edward46GERRG HALDERN 033:43:043:43:233:09 19.0715M2WESELTéléchargez votre diplome!
94.75MEKEIREL Stijn22BELCYCLO BIKE OOST3:43:063:43:243:09 19.0726SENEVERGEMTéléchargez votre diplome!
95.310VAN DEN DUNGEN Peter39BELDE CAMPINA3:44:073:44:213:10 18.9949M1DESSELTéléchargez votre diplome!
96.62CLAES Jan34BELAFDELING ANTWER3:44:253:44:333:10 18.9750M1OELEGEMTéléchargez votre diplome!
97.24VANWEERST Cédric23BELCORRATEC-REUTER3:45:443:45:483:11 18.8727SENPETIT- RECHAINTéléchargez votre diplome!
98.33STOCKX Dieter28BELDC CONSTRUCT3:45:473:45:503:11 18.8628SENATTENRODETéléchargez votre diplome!
99.42SCHOLTES Maxime17BELCYCLING TEAM CR3:46:053:46:053:12 18.843JUNDOLEMBREUXTéléchargez votre diplome!
100.487VANKEIRSBILCK Kurt40BELPROV. AFD. WEST3:46:413:46:493:12 18.7816M2ROESELARETéléchargez votre diplome!
DNF: abandon; DSQ: disqualifié; Vitesse en km/h
20/01/2020 - 12:38 - 520 Entrées
ChronoRace - Electronic Timing SPRL
http://www.chronorace.be

Page 2 / 11  
EBBT #3 - Les Cimes de Waimes
VTT Waimes, 01/05/2008, BEL
Les Cimes de Waimes - Classement à l'arrivée
71km 
Catégorie
PosNrNomAgeIOCEquipeRéelTempsTkmMoy.RangNomLocalité
101.41BEAUDOIN Nicolas29BELCORRATEC-REUTER3:47:003:47:073:12 18.7629SENSTOUMONTTéléchargez votre diplome!
102.517BENS Rudy48BELMTB CROSSERS3:47:153:48:003:13 18.6817M2Téléchargez votre diplome!
103.16MOLLERS Samuel22BELSPORT ET NATURE3:48:023:48:093:13 18.6730SENWAIMESTéléchargez votre diplome!
104.68VUJASIN Lionel19BELSECTION LIEGEOI3:48:073:48:143:13 18.6731SENSERAINGTéléchargez votre diplome!
105.31MARICHAL Eddy36BEL3:48:153:48:163:13 18.6651M1FAYMONVILLETéléchargez votre diplome!
106.545HILGERS Michael24BELCORRATEC-REUTER3:47:113:48:163:13 18.6632SENSAINT-VITHTéléchargez votre diplome!
107.471RONGEN Gerd42GERTEAM FIREBIKE3:47:513:48:233:13 18.6518M2Téléchargez votre diplome!
108.327RAMAEKERS Jan27BEL3:47:183:48:253:14 18.6533SENHERK-DE-STADTéléchargez votre diplome!
109.256TAYMANS Jean-Pierre40BELBIERKARBOYS3:48:043:48:303:14 18.6419M2GEELTéléchargez votre diplome!
110.206SWINKELS Geert49NED3:48:303:48:303:14 18.6420M2LITHTéléchargez votre diplome!
111.156DEPRINCE Dieter29BELIN-BIKES3:48:263:48:473:14 18.6234SENOUDENBURGTéléchargez votre diplome!
112.51WILLEMS Jan36BELDE MODDERFOKKER3:48:403:49:003:14 18.6052M1SCHELLEBELLETéléchargez votre diplome!
113.476WEEGHMANS Piet32BEL3:48:253:49:223:14 18.5753M1ALKENTéléchargez votre diplome!
114.65DEBAYE Sébastien34BELENTENTE CYCLIST3:49:133:49:223:14 18.5754M1SIRAULTTéléchargez votre diplome!
115.20FSAENEN Kim32BELVLAAMS-BRABANTS3:49:253:49:293:14 18.562DAMDIESTTéléchargez votre diplome!
116.18DECLERCK Rado28BELLINGIER VERSLU3:49:553:49:563:15 18.5335SENOOSTENDETéléchargez votre diplome!
117.330DEHING Filip37BEL3:50:023:50:183:15 18.5055M1LEEFDAALTéléchargez votre diplome!
118.262VAN TENDELOO Koen27BEL3:50:133:50:223:15 18.4936SENBOUWELTéléchargez votre diplome!
119.132DE MEETER Niko26BEL TEAM SAECO 3:50:253:50:363:15 18.4737SENEREMBODEGEMTéléchargez votre diplome!
120.69ANTOINE Yannick35BELASBL RED BIKERS3:50:333:50:423:15 18.4756M1RULLESTéléchargez votre diplome!
121.458FLIES Danny45BELK.W.C. HEIST 3:50:193:50:543:16 18.4521M2LIPPELOTéléchargez votre diplome!
122.94VAN MIRLO Ronny48BELAFDELLING ANTWE3:51:043:51:203:16 18.4222M2Téléchargez votre diplome!
123.78VAN MIRLO Peter44BELAFDELING ANTWER3:51:053:51:203:16 18.4223M2SINT-LENAARTSTéléchargez votre diplome!
124.151HELZLE Benjamin28GERTEAM FIREBIKE3:51:143:51:213:16 18.4138SENROETGENTéléchargez votre diplome!
125.346HÖLZ Raimund39GEREIFEL-MOUNTAIN 3:51:053:51:343:16 18.4057M1SCHLEIDEN-GEMÜNDTéléchargez votre diplome!
126.123VAN DER CRUYSSEN Tom30BELW.S.C. OOSTAKKE3:51:193:51:413:16 18.3958M1OOSTAKKERTéléchargez votre diplome!
127.276SEGERS Andy33BELAFDELING OOST-V3:51:333:51:433:16 18.3959M1BRAKELTéléchargez votre diplome!
128.44ERNOULD Simon21BELAMB THEUX3:51:413:51:443:16 18.3839SENTHEUXTéléchargez votre diplome!
129.27CRUTZE Jean-Louis58BELARDENNES MOUNTA3:51:503:51:503:16 18.383M3MALMEDYTéléchargez votre diplome!
130.87DE SMEDT Tommie34BELAFDELING OOST-V3:51:353:52:083:17 18.3560M1EKSAARDETéléchargez votre diplome!
131.316HUYS Andy31BELBRIGANDSBIKERS3:52:023:52:103:17 18.3561M1MEULEBEKETéléchargez votre diplome!
132.301VANDERSTRAETEN Joeri31BEL3:51:213:52:203:17 18.3462M1KORTESSEMTéléchargez votre diplome!
133.439CUYLAERTS EricBELAPRES BIKERS3:52:113:52:493:17 18.301XXXHERENTALSTéléchargez votre diplome!
134.478VAN HOOF Willem35NEDTEAM MIERLO3:52:233:53:013:17 18.2863M1Téléchargez votre diplome!
135.81VAN HAASTER Henk56NED3:53:253:53:383:18 18.234M3ALKMAARTéléchargez votre diplome!
136.32MANDERS Jeroen39NEDFUNBIKERS3:53:553:54:003:18 18.2164M1EINDHOVENTéléchargez votre diplome!
137.38FONCK Gary42BELSPA VTT3:53:563:54:043:18 18.2024M2JALHAYTéléchargez votre diplome!
138.52DECOUX Jonathan23BELCYCLE DYNAMIC T3:53:523:54:113:18 18.1940SENMETTETTéléchargez votre diplome!
139.490KRUIJSEN Matthijs29NEDTEAM FV3:53:283:54:323:19 18.1641SENTéléchargez votre diplome!
140.380MOLAG Arjen29NEDDWV KLEIN VERZE3:53:583:54:343:19 18.1642SENENSCHEDETéléchargez votre diplome!
141.305PAESMANS Tom34BEL3:54:243:54:403:19 18.1565M1BEKKEVOORTTéléchargez votre diplome!
142.400VAN EVERBROECK Sven31BEL 2MEGA - SAECO 3:54:133:54:593:19 18.1366M1WIJGMAAL (BT.)Téléchargez votre diplome!
143.101WOUTERS Roel35BELVLAAMS-BRABANTS3:54:363:55:063:19 18.1267M1OUD-HEVERLEETéléchargez votre diplome!
144.182SNOECK Davy35BEL3:54:533:55:183:19 18.1168M1KIELDRECHTTéléchargez votre diplome!
145.155FLAMEND Pieter25BELHEERS MTB TEAM3:54:133:55:193:19 18.1043SENSINT TRUIDENTéléchargez votre diplome!
146.299SOMERS Leo44BELATB HERENTALS3:54:583:55:213:19 18.1025M2VORSELAARTéléchargez votre diplome!
147.83VERBERCKMOES Christoph18BELARDENNES MOUNTA3:55:193:55:363:20 18.084JUNELVERSELETéléchargez votre diplome!
148.141VAN BREE Patrick27NED3:55:043:55:383:20 18.0844SENEINDHOVENTéléchargez votre diplome!
149.372DE BONT Glenn31BEL3:55:363:55:513:20 18.0669M1OOSTENDETéléchargez votre diplome!
150.426VAN DONGEN Rob32NED3:56:013:56:013:20 18.0570M1ZEELANSTéléchargez votre diplome!
DNF: abandon; DSQ: disqualifié; Vitesse en km/h
20/01/2020 - 12:38 - 520 Entrées
ChronoRace - Electronic Timing SPRL
http://www.chronorace.be

Page 3 / 11  
EBBT #3 - Les Cimes de Waimes
VTT Waimes, 01/05/2008, BEL
Les Cimes de Waimes - Classement à l'arrivée
71km 
Catégorie
PosNrNomAgeIOCEquipeRéelTempsTkmMoy.RangNomLocalité
151.424FVAN DEN BRAND Daphny30NED3:56:023:56:023:20 18.053DAMTéléchargez votre diplome!
152.50DE GENDT Stefaan36BELPERVELO RACE TO3:55:593:56:333:20 18.0171M1AALSTTéléchargez votre diplome!
153.300FICTORIE Johan41NEDBIKES4YOU3:56:583:57:173:21 17.9526M2COEVORDENTéléchargez votre diplome!
154.488DEXTERS Didier19BELTEAM SAECO3:56:413:57:253:21 17.9445SENTéléchargez votre diplome!
155.96DE BAETS Bjorn31BELCYCLO BIKE OOST3:57:143:57:323:21 17.9372M1MALDEGEMTéléchargez votre diplome!
156.548NOEL Philippe39BELAMB THEUX3:56:383:57:493:21 17.9173M1THEUXTéléchargez votre diplome!
157.43BULON Marc40BELSECTION LIEGEOI3:57:573:58:003:22 17.9027M2BURDINNETéléchargez votre diplome!
158.137VAN DE VELDE Stijn24BELVANOMOBIL MTB C3:57:393:58:063:22 17.8946SENLOKERENTéléchargez votre diplome!
159.403SCHMIETTECATTE KoenBELFUNNY BIKERS KL3:57:413:58:203:22 17.872XXXTéléchargez votre diplome!
160.438COSIJN Mark28NED3:57:373:58:443:22 17.8447SENTéléchargez votre diplome!
161.397GOBATTO Giovanni33BEL3:59:063:59:123:23 17.8174M1VERVIERSTéléchargez votre diplome!
162.464BRUSSELAERS Bart30BEL3:58:363:59:213:23 17.8075M1Téléchargez votre diplome!
163.516LECLERC Stephane17BELHELIOS3:59:163:59:283:23 17.795JUNTHEUXTéléchargez votre diplome!
164.97ROSSIGNOL Jean-Luc51BELVLAAMS-BRABANTS4:00:084:00:213:24 17.725M3TERNATTéléchargez votre diplome!
165.560NYS Marc42BEL3:59:414:00:223:24 17.7228M2Téléchargez votre diplome!
166.119FOLIE Francois25FRAACT 804:00:174:00:253:24 17.7248SENGROFFLIERSTéléchargez votre diplome!
167.127TIGGELAAR Roald32NED4:00:204:00:593:24 17.6876M1HENGELOTéléchargez votre diplome!
168.504GROSEMANS Johan36BELWTC DE WARE VRI4:00:574:01:153:24 17.6677M1Téléchargez votre diplome!
169.572HEYNS Christophe35BEL4:00:324:01:433:25 17.6278M1Téléchargez votre diplome!
170.85THUY Arno16BELBLANCS GILETS 4:01:344:01:453:25 17.621DEBLA HULPETéléchargez votre diplome!
171.253CROONENBORGHS Benny40BEL4:01:164:01:453:25 17.6229M2TIELENTéléchargez votre diplome!
172.339CARDINAELS Philippe36BELDERDAELE +4:01:034:01:463:25 17.6279M1HAMONT-ACHELTéléchargez votre diplome!
173.322BECKERS Jo29BELSPORTIVE BIKE T4:00:304:01:463:25 17.6249SENVEERLETéléchargez votre diplome!
174.510ERNST Tony43BELBIKEPOINT4:01:064:01:473:25 17.6230M2Téléchargez votre diplome!
175.91VAN DER AA Twan38NED4:00:384:01:553:25 17.6180M1BERLICUMTéléchargez votre diplome!
176.542LEGRAND Bernard43BEL4:01:484:02:443:26 17.5531M2Téléchargez votre diplome!
177.209LAUWERYS Philip42BEL4:03:114:03:313:26 17.4932M2DUFFELTéléchargez votre diplome!
178.446VROMAN David37BEL26 INCH COLLECT4:02:524:03:323:26 17.4981M1PITTEMTéléchargez votre diplome!
179.365DE MUNCK Dominique29BELBRUBIKE4:03:144:03:333:26 17.4950SENEVERETéléchargez votre diplome!
180.364WILLEMS Robin24BEL4:03:084:03:333:26 17.4951SENLOKERENTéléchargez votre diplome!
181.532FLIES Gunther39BELCHAMIZO SPORTFU4:03:074:03:393:26 17.4882M1Téléchargez votre diplome!
182.219CLEYS Dimitri33BELKALLO-FFWRD4:03:264:04:193:27 17.4483M1KALLOTéléchargez votre diplome!
183.105VANDEPUT Davy37BELVLAAMS-BRABANTS4:04:344:05:103:28 17.3884M1BEAUVECHAINTéléchargez votre diplome!
184.213BOHMER Richard32NED4:05:194:05:193:28 17.3785M1GULPENTéléchargez votre diplome!
185.489DE BOER Richard26NEDTEAM FV4:04:364:05:233:28 17.3652SENTéléchargez votre diplome!
186.114HENSBROEK Menno27NED4:06:044:06:173:29 17.3053SENTéléchargez votre diplome!
187.466VAN DEN BRANDE Jarkko34BELAFDELING ANTWER4:05:354:06:253:29 17.2986M1VORSELAARTéléchargez votre diplome!
188.124MONDRIA Mark27NED4:06:004:06:273:29 17.2954SENDEN HAAGTéléchargez votre diplome!
189.122FDEJONGH Ilke20BEL TEAM SAECO 4:06:224:06:313:29 17.284DAMKORTRIJK-DUTSELTéléchargez votre diplome!
190.98FSTEIN-KIRCH Anne44GER4:06:014:06:323:29 17.285DAMMONSCHAUTéléchargez votre diplome!
191.427VAN CRAEN Stijn32BELTEAM SAECO4:05:494:06:483:29 17.2687M1BOOISCHOTTéléchargez votre diplome!
192.315JANS Eddy39BEL4:05:404:06:493:29 17.2688M1GENKTéléchargez votre diplome!
193.525GILSON Renaud47BELSPA VTT4:07:564:08:013:30 17.1833M2JALHAYTéléchargez votre diplome!
194.22LODOMEZ Philippe22BELARDENNES MOUNTA4:08:284:08:323:31 17.1455SENMALMEDYTéléchargez votre diplome!
195.449ZIANE Olivier21BELSECTION BRABANT4:07:534:08:333:31 17.1456SENBRAINE-L´ALLEUDTéléchargez votre diplome!
196.226GROOTEN Wouter26NED4:08:204:08:413:31 17.1357SENBREUKELENTéléchargez votre diplome!
197.515SCHAFFER Etienne36BEL4:07:594:08:483:31 17.1289M1Téléchargez votre diplome!
198.76BRASSEUR Arthur15BELBLANCS GILETS 4:08:414:08:523:31 17.122DEBANDRELECHTTéléchargez votre diplome!
199.120GEEROMS Erik42BELWK NOORD WEST B4:07:504:08:553:31 17.1234M2MERCHTEMTéléchargez votre diplome!
200.189DE NEVE Eric44BELMTB ASPELARE4:08:334:09:073:31 17.1035M2NEDERHASSELTTéléchargez votre diplome!
DNF: abandon; DSQ: disqualifié; Vitesse en km/h
20/01/2020 - 12:38 - 520 Entrées
ChronoRace - Electronic Timing SPRL
http://www.chronorace.be

Page 4 / 11  
EBBT #3 - Les Cimes de Waimes
VTT Waimes, 01/05/2008, BEL
Les Cimes de Waimes - Classement à l'arrivée
71km 
Catégorie
PosNrNomAgeIOCEquipeRéelTempsTkmMoy.RangNomLocalité
201.294BIERINCKX Tom30BEL4:09:174:09:283:31 17.0890M1VORSELAARTéléchargez votre diplome!
202.23LHEUREUX Hugues40BELAMB THEUX4:09:384:09:433:32 17.0636M2FENEURTéléchargez votre diplome!
203.308BOONE Benoit34BELMESOTTEN4:09:264:09:523:32 17.0591M1TONGERENTéléchargez votre diplome!
204.216REKKO Gene23NED4:08:554:09:533:32 17.0558SENMEERSSENTéléchargez votre diplome!
205.265COMPERNOLLE Stefaan33BEL4:09:544:10:123:32 17.0392M1KNESSELARETéléchargez votre diplome!
206.479WANGEN Fabrice19BELCORRATEC-REUTER4:09:464:10:273:32 17.0159SENBURG-REULANDTéléchargez votre diplome!
207.323BELMANS Johan31BELSPORTIVE BIKE T4:09:174:10:333:32 17.0093M1MEERHOUTTéléchargez votre diplome!
208.143MICHELS Joachim32BELWIELERTEAM MORE4:10:574:11:183:33 16.9594M1DE PINTETéléchargez votre diplome!
209.168VENNEKENS Tom33BEL4:10:534:11:293:33 16.9495M1RETIETéléchargez votre diplome!
210.236WAELKENS Dave28BELORIGINAL BIKERS4:11:204:11:353:33 16.9360SENHOBOKENTéléchargez votre diplome!
211.106HESSELINK Ralph30NED4:10:584:11:353:33 16.9396M1OOTMARSUMTéléchargez votre diplome!
212.340BAUM Kirian27BEL4:11:214:11:353:33 16.9361SENANTWERPENTéléchargez votre diplome!
213.351BASTIAENSSEN Bart37BEL4:10:354:11:463:33 16.9297M1RIJKEVORSELTéléchargez votre diplome!
214.467PELEMAN Gunter37BELTEAM SAECO4:11:114:11:553:33 16.9198M1Téléchargez votre diplome!
215.549DELMOTTE Ronny28BEL4:12:314:13:083:34 16.8362SENTéléchargez votre diplome!
216.230TEN HARTOG Patrick49BELTHOMPSON CYCLIN4:12:534:13:173:35 16.8237M2SINAAITéléchargez votre diplome!
217.407MARLY Michel52BELAMB THEUX4:12:374:13:183:35 16.826M3Téléchargez votre diplome!
218.201JACOB Thierry41BELAMB THEUX4:13:074:13:193:35 16.8238M2SPATéléchargez votre diplome!
219.272WILLAERT Kris32BEL26 INCH4:13:504:13:593:35 16.7799M1MEULEBEKETéléchargez votre diplome!
220.243MEYER Patrick43BELREFTA4:13:324:14:043:35 16.7739M2RECHTTéléchargez votre diplome!
221.183MARIEN Willy44BEL4:13:364:14:123:35 16.7640M2HULSHOUTTéléchargez votre diplome!
222.569JANSSENS SvenBEL100% BIEST4:14:204:14:273:36 16.743XXXTéléchargez votre diplome!
223.175KOOIJMAN Marc46NED4:14:194:14:333:36 16.7441M2AMSTERDAMTéléchargez votre diplome!
224.456SENDEN Johan45BELCYCLES JEAN HAB4:13:294:14:373:36 16.7342M2DALHEMTéléchargez votre diplome!
225.481DE DAUW Benny37BEL4:14:484:15:363:36 16.67100M1Téléchargez votre diplome!
226.577JULIENS Gunter46BEL4:15:264:15:393:37 16.6643M2Téléchargez votre diplome!
227.410MEEUS Johan45BEL4:16:364:17:133:38 16.5644M2Téléchargez votre diplome!
228.284VAN HOEY Peter43BELAATB4:17:024:17:183:38 16.5645M2ANTWERPENTéléchargez votre diplome!
229.432VAN GINKEL Alex25NED4:16:434:17:213:38 16.5563SENOTTERLOTéléchargez votre diplome!
230.286BOGAERTS Sven24BEL4:17:294:17:513:38 16.5264SENBALEN - WEZELTéléchargez votre diplome!
231.79DEMOLDER Gerrit32BELFUERZA MTB TEAM4:17:174:17:523:38 16.52101M1ROESELARETéléchargez votre diplome!
232.56VANHAUWAERT Bert32BELFUERZA MTB TEAM4:17:214:17:543:38 16.52102M1WEVELGEMTéléchargez votre diplome!
233.233KINDT Erwin36BEL4:17:544:18:043:39 16.51103M1JABBEKETéléchargez votre diplome!
234.503AKKERMANS Andy40BEL4:17:104:18:253:39 16.4946M2Téléchargez votre diplome!
234.523HILVEN Werner33BEL4:17:114:18:253:39 16.49104M1Téléchargez votre diplome!
236.296RENTMEISTER Rene54BELSPORT ET NATURE4:18:104:18:313:39 16.487M3WAIMESTéléchargez votre diplome!
237.166DEVOLDER Tom27BELBRIGANDSBIKERS4:17:534:18:323:39 16.4865SENOOSTROZEBEKETéléchargez votre diplome!
238.194PAUWELS Karel27BELBRIGANDSBIKERS4:17:564:18:363:39 16.4766SENIZEGEMTéléchargez votre diplome!
239.509VANHEES Patrick40BEL4:17:284:18:423:39 16.4747M2Téléchargez votre diplome!
240.64FPIETERS Cindy32BELVZW TREK USA RA4:19:124:19:273:40 16.426DAMSINT-NIKLAASTéléchargez votre diplome!
241.287HENDRIX Hans31NED4:18:404:19:313:40 16.42105M1URMONDTéléchargez votre diplome!
242.302GELDHOF Peter36BELTEAMNOMADESK.CO4:19:254:19:423:40 16.40106M1GENTTéléchargez votre diplome!
243.493DEL VALLE Christophe33BEL4:18:494:19:453:40 16.40107M1Téléchargez votre diplome!
244.570DESONAY Raymond46BEL4:20:094:20:093:40 16.3848M2JALHAYTéléchargez votre diplome!
245.494VAN ETTEKOVEN Roy27NEDTEAM FV4:20:014:20:493:41 16.3367SENTéléchargez votre diplome!
246.334VAN LENT Pieter35BELTHE WEB4:20:364:20:553:41 16.33108M1RAMSDONKTéléchargez votre diplome!
247.451VANLOMMEL Patrick40BELAPRES BIKERS4:20:254:21:043:41 16.3249M2OLENTéléchargez votre diplome!
248.247JENNEN Luc43BEL4 BIKERS.BE4:21:064:21:313:41 16.2950M2BALENTéléchargez votre diplome!
249.298DEBRUYNE Jan33BEL4:21:074:21:493:42 16.27109M1ROLLEGEMTéléchargez votre diplome!
250.177BOCKSTAEL Jan27BELBERGSPORTFEDERA4:21:464:21:553:42 16.2668SENGALMAARDENTéléchargez votre diplome!
DNF: abandon; DSQ: disqualifié; Vitesse en km/h
20/01/2020 - 12:38 - 520 Entrées
ChronoRace - Electronic Timing SPRL
http://www.chronorace.be

Page 5 / 11  
EBBT #3 - Les Cimes de Waimes
VTT Waimes, 01/05/2008, BEL
Les Cimes de Waimes - Classement à l'arrivée
71km 
Catégorie
PosNrNomAgeIOCEquipeRéelTempsTkmMoy.RangNomLocalité
251.558AERTS Joel37BEL4:21:434:22:403:42 16.22110M1Téléchargez votre diplome!
252.269CAUCHY Sebastien26BEL4:22:194:22:493:43 16.2169SENJENEFFETéléchargez votre diplome!
253.335VAN HOVE Jean-François31BEL4:21:464:22:513:43 16.21111M1WAREMMETéléchargez votre diplome!
254.291VAN DROOGENBROECK Sven38BELGOEMAN SCOTT CY4:22:424:23:013:43 16.20112M1DILBEEKTéléchargez votre diplome!
255.282VERSTRAETE Ronald31BEL26 INCH COLLECT4:24:394:24:493:44 16.09113M1TIELTTéléchargez votre diplome!
256.462STASSART Benoit30BELSALKAMELBAG4:24:104:24:593:44 16.08114M1Téléchargez votre diplome!
257.450VAN DE WEYER RoccoBEL4:24:244:25:043:44 16.074XXXWIEKEVORSTTéléchargez votre diplome!
258.102DE BRUIJN Justin23NED4:25:274:25:413:45 16.0370SENZALTBOMMELTéléchargez votre diplome!
259.508SALEMBIER Niek27BEL4:25:114:26:143:45 16.0071SENTéléchargez votre diplome!
260.267BERTRAND Bernard31BEL02 BIKERS4:25:444:26:163:46 16.00115M1ANTHISNESTéléchargez votre diplome!
261.266DONNAY Jean-François43BEL02 BIKERS + HOU4:25:464:26:183:46 16.0051M2SAINT REMYTéléchargez votre diplome!
262.93WEISHAUPT David16GERTV ROETGEN 18944:26:094:26:213:46 15.993DEBROETGENTéléchargez votre diplome!
263.499DUSART Mathieu31BEL4:25:574:26:483:46 15.97116M1Téléchargez votre diplome!
264.421VAN GOMPEL Ief33BEL4:26:584:27:353:47 15.92117M1LILLETéléchargez votre diplome!
265.404KEUPPENS Geert44BELLA VITA - BMC4:26:414:27:363:47 15.9252M2HEIST OP DEN BERGTéléchargez votre diplome!
266.553MIGNON Philippe47BELSPA VTT4:26:484:27:463:47 15.9153M2Téléchargez votre diplome!
267.277NAOME Tom30BEL4:28:134:28:343:47 15.86118M1BILZENTéléchargez votre diplome!
268.539WINCKELMANS Wim44BEL4:28:004:28:463:48 15.8554M2Téléchargez votre diplome!
269.533DEVER Jan30BEL4:28:124:29:003:48 15.84119M1Téléchargez votre diplome!
270.477VANDERHULST Joery36BEL4:27:514:29:013:48 15.84120M1Téléchargez votre diplome!
271.379BOEMER Gerard42BEL4:28:534:29:233:48 15.8155M2WAIMESTéléchargez votre diplome!
272.150DE HAUWERE Tim30BELWK NOORD WEST B4:28:444:29:513:49 15.79121M1LEBBEKETéléchargez votre diplome!
273.228SCHRAEYEN Egon41BELBIKEFUN4:29:244:29:543:49 15.7856M2TESSENDERLOTéléchargez votre diplome!
274.500GREIMERS Alexander30BELCORRATEC-REUTER4:28:504:29:553:49 15.78122M1EUPENTéléchargez votre diplome!
275.357BLONDIAUX Freddy55BEL4:29:044:29:563:49 15.788M3PRESLESTéléchargez votre diplome!
276.178VAN DEN EYNDEN Eric41BELMOLENTRAPPERS T4:29:304:29:583:49 15.7857M2VOSSELAARTéléchargez votre diplome!
277.567ROEFS LucBEL4:29:044:30:033:49 15.785XXXTéléchargez votre diplome!
278.214REKKO Bernard50NEDMOT KINNE4:29:114:30:133:49 15.779M3MEERSSENTéléchargez votre diplome!
279.173DETEMMERMAN Filip40BELJOYBIKERS4:33:314:33:483:52 15.5658M2BRAKELTéléchargez votre diplome!
280.561VAN DER BORGHT Walter45BEL4:33:124:33:533:52 15.5559M2Téléchargez votre diplome!
281.283VERVELGHE Jurgen38BEL26 INCH COLLECT4:33:534:34:043:52 15.54123M1OOSTROZEBEKETéléchargez votre diplome!
282.49LOIX Dirk32BELCYCLO-BIKE LIMB4:33:414:34:143:52 15.53124M1BILZENTéléchargez votre diplome!
283.571CALUWAERTS Sven37BEL100% BIEST4:35:364:35:483:54 15.45125M1Téléchargez votre diplome!
284.513BUELENS Johan39BEL4:35:004:36:113:54 15.42126M1Téléchargez votre diplome!
285.514DE SMEDT Paul42BEL4:34:584:36:123:54 15.4260M2Téléchargez votre diplome!
286.295GOESSENS Sebastien33BEL4:35:084:36:243:54 15.41127M1THUILLIESTéléchargez votre diplome!
287.92COOLS Alain43BELLINGIER VERSLU4:36:234:36:463:54 15.3961M2BREDENETéléchargez votre diplome!
288.557PUTTEMANS Didier36BELVOERWALLES4:35:574:36:473:54 15.39128M1Téléchargez votre diplome!
289.179FERLIN Lieven30BELBC LA RULLES4:36:314:36:513:54 15.39129M1OTTENBURGTéléchargez votre diplome!
290.501VAN DIJCK Jan36BEL4:36:164:37:003:55 15.38130M1Téléchargez votre diplome!
291.145VANDAMME Benoit30BELPROV. AFD. WEST4:37:104:37:103:55 15.37131M1WEVELGEMTéléchargez votre diplome!
292.138GOOS Patrick46BELPROV. AFD. WEST4:37:134:37:223:55 15.3662M2WERVIKTéléchargez votre diplome!
293.356DEMIAUTTE Robert41FRASECTION HENNUYE4:36:544:37:293:55 15.3563M2MONTIGNY LE TILLEULTéléchargez votre diplome!
294.254COOLS Aaron22BELWAASLAND MOUNTA4:37:324:38:353:56 15.2972SENWAASMUNSTERTéléchargez votre diplome!
295.227BOUDIN Frederic36FRA4:39:064:39:223:57 15.25132M1ARRASTéléchargez votre diplome!
296.221DUFRAING Peter45BELFORZA4:38:584:39:293:57 15.2464M2BEERSETéléchargez votre diplome!
297.84SCHREUER Julien22BELRADSPORTKLUB - 4:40:304:40:493:58 15.1773SENEUPENTéléchargez votre diplome!
298.319GENTEN Alain41BELDECORAMA4:40:464:40:593:58 15.1665M2ONDENVALTéléchargez votre diplome!
299.484DEN BEKKER Adri30NED4:40:094:41:283:58 15.14133M1Téléchargez votre diplome!
300.240BEHRENDT Thomas30GERIBC DIMB RACING4:41:424:41:543:59 15.11134M1GLADBECKTéléchargez votre diplome!
DNF: abandon; DSQ: disqualifié; Vitesse en km/h
20/01/2020 - 12:38 - 520 Entrées
ChronoRace - Electronic Timing SPRL
http://www.chronorace.be

Page 6 / 11  
EBBT #3 - Les Cimes de Waimes
VTT Waimes, 01/05/2008, BEL
Les Cimes de Waimes - Classement à l'arrivée
71km 
Catégorie
PosNrNomAgeIOCEquipeRéelTempsTkmMoy.RangNomLocalité
301.371MEULEMANS Niko39BELMTB CAMPINA4:41:554:42:103:59 15.10135M1RETIETéléchargez votre diplome!
302.238GEBOERS Kris42BEL4:41:594:42:163:59 15.0966M2MOLTéléchargez votre diplome!
303.482CLAEYS Maarten25BELSEAT4:41:144:42:183:59 15.0974SENTéléchargez votre diplome!
304.521VAN LINTER Juan394:41:284:42:223:59 15.09136M1Téléchargez votre diplome!
305.224WOLLENWEBER Olivier34GERSIG KOBLENZ4:42:084:42:433:59 15.07137M1KIRCHWALDTéléchargez votre diplome!
306.337STERKENDRIES Stephane42BEL4:42:234:42:564:00 15.0667M2WAREMMETéléchargez votre diplome!
307.303COLETTE Daniel43BELVTT CLUB MOSAN4:42:274:42:574:00 15.0668M2FIZE FONTAINETéléchargez votre diplome!
308.385JACOBS Nico46BEL4:42:234:43:284:00 15.0369M2PAALTéléchargez votre diplome!
309.384SMOLDERS Alex48BEL4:42:234:43:284:00 15.0370M2DESSELTéléchargez votre diplome!
310.502FLESCRENIER Katrien30BELRS4:43:254:44:134:01 14.997DAMTéléchargez votre diplome!
311.575HAUMONT Bert30BEL4:43:404:44:224:01 14.98138M1Téléchargez votre diplome!
312.359VAN HOORICK Peter34BEL4:44:004:44:234:01 14.98139M1DEURNETéléchargez votre diplome!
313.483CLAEYS Jeroen24BELSEAT4:43:234:44:264:01 14.9875SENTéléchargez votre diplome!
314.576AVERMATE Yves30BEL4:44:004:44:424:01 14.96140M1Téléchargez votre diplome!
315.453LAUWERS Manuel27BEL4:44:224:45:074:01 14.9476SENTURNHOUTTéléchargez votre diplome!
316.187MULDER Marco33NED4:43:564:45:134:02 14.94141M1TIELTéléchargez votre diplome!
317.543HEUVELMANS Frans41NED4:44:114:45:144:02 14.9471M2Téléchargez votre diplome!
318.535VAN DOORMAAL Wim50NED4:44:124:45:154:02 14.9310M3Téléchargez votre diplome!
319.531VAN DER HEIDEN Arian28NEDBAARS BIKERS4:44:184:45:164:02 14.9377SENTéléchargez votre diplome!
320.534ROY X38NEDBAARS BIKERS4:44:124:45:164:02 14.93142M1Téléchargez votre diplome!
321.496MEERVELD Colin27NEDTEAM FV4:44:534:45:404:02 14.9178SENTéléchargez votre diplome!
322.223LAUWERS Philippe35BEL4:46:234:46:464:03 14.86143M1GENTTéléchargez votre diplome!
323.271GEUENS Dennis27BELPAPEGAAIE BIKE 4:46:334:46:464:03 14.8679SENZNDVLIETTéléchargez votre diplome!
324.566GEERTS Pieter284:45:434:47:294:03 14.8280SENTéléchargez votre diplome!
325.311DESIMPELAERE Bert31BELFUERZA MTB TEAM4:46:594:47:334:03 14.82144M1WEVELGEMTéléchargez votre diplome!
326.399PERSOONS Dirk54BELXESCO4:46:164:47:374:04 14.8111M3Téléchargez votre diplome!
327.255VAN DER KELEN Frank42BELDZM4:47:364:47:584:04 14.7972M2AALSTTéléchargez votre diplome!
328.186GORIS Poul48BEL4:47:464:48:234:04 14.7773M2HULSHOUTTéléchargez votre diplome!
329.459EKELSCHOT Paul44NED4:47:454:48:304:04 14.7774M2Téléchargez votre diplome!
330.134CORNELIS Yannick23BELWSC VOORUIT4:48:254:48:584:05 14.7481SENSTEKENETéléchargez votre diplome!
331.402JACOBS Daniel46BEL4:48:454:49:294:05 14.7275M2KAPELLENTéléchargez votre diplome!
332.54DOMINICUS Eric50BEL TEAM SAECO 4:50:294:50:514:06 14.6512M3PULLETéléchargez votre diplome!
333.442SMOLDERS Marcel42NEDABUS VENTOUX4:51:004:51:484:07 14.6076M2BERKEL-ENSCHOTTéléchargez votre diplome!
334.443FRANKEN Joost42NEDABUS VENTOUX4:51:004:51:494:07 14.6077M2BERKEL-ENSCHOTTéléchargez votre diplome!
335.349PLUNUS Cedric27BEL4:51:234:51:504:07 14.6082SENFRAIPONTTéléchargez votre diplome!
336.115DEHAZE Laurent22BELTEAM CYCLISTE D4:50:354:51:544:07 14.5983SENCRISNÉETéléchargez votre diplome!
337.430VERWERFT Ivan33BELCTV4:51:034:52:034:07 14.59145M1VORSELAARTéléchargez votre diplome!
338.139RAEYMAKERS Sven33BELCYCLING TEAM 4:51:164:52:174:07 14.58146M1HERENTALSTéléchargez votre diplome!
339.208DECHAMPS Gregory29BEL4:52:234:52:474:08 14.5584SENHOEILAARTTéléchargez votre diplome!
340.190VERVLOESEM Marc34BEL4:52:124:52:484:08 14.55147M1AARSCHOTTéléchargez votre diplome!
341.428VANSIMPSEN Ronny36BEL4:52:214:53:134:08 14.53148M1BORGLOONTéléchargez votre diplome!
342.497THIERENS Guido40BEL4:57:094:58:054:12 14.2978M2Téléchargez votre diplome!
343.536SPELEMAN Tom40BEL4:56:484:58:054:12 14.2979M2Téléchargez votre diplome!
344.362VERBIST Tony22BELTRIPPLE BIKERS4:58:594:59:274:14 14.2385SENMALLETéléchargez votre diplome!
345.314SCHUTTERS Ralf27BEL4:59:094:59:324:14 14.2286SENGENKTéléchargez votre diplome!
346.285VANHERLE Bart33BEL4:59:124:59:334:14 14.22149M1GENKTéléchargez votre diplome!
347.468KLINKENBERG John45BEL4:58:484:59:334:14 14.2280M2Téléchargez votre diplome!
348.486DEDECKER Racing27BEL4:59:194:59:424:14 14.2187SENTéléchargez votre diplome!
349.480VERTOGEN Patrick40NED4:58:534:59:434:14 14.2181M2Téléchargez votre diplome!
350.169MARTHA Andre32BEL4:59:364:59:504:14 14.21150M1MIGNAULTTéléchargez votre diplome!
DNF: abandon; DSQ: disqualifié; Vitesse en km/h
20/01/2020 - 12:38 - 520 Entrées
ChronoRace - Electronic Timing SPRL
http://www.chronorace.be

Page 7 / 11  
EBBT #3 - Les Cimes de Waimes
VTT Waimes, 01/05/2008, BEL
Les Cimes de Waimes - Classement à l'arrivée
71km 
Catégorie
PosNrNomAgeIOCEquipeRéelTempsTkmMoy.RangNomLocalité
351.333ROSSELLE Gianni32BELMBC MC CHOUFFE4:59:324:59:564:14 14.20151M1WESTENDETéléchargez votre diplome!
352.321VAN THIELEN Carlo41BELSPORTIVE BIKE T4:58:414:59:564:14 14.2082M2RAMSELTéléchargez votre diplome!
353.200AELTERMAN Peter27BEL4:58:585:00:074:14 14.1988SENGENTTéléchargez votre diplome!
354.171SCHOMMERS Norbert45BELSCBTRI4:59:565:00:084:14 14.1983M2BULLINGENTéléchargez votre diplome!
355.280MOENS Stefan27BELWMBT4:59:475:00:204:14 14.1889SENLOKERENTéléchargez votre diplome!
356.460PERSOONS Henk42NED4:59:365:00:294:14 14.1884M2Téléchargez votre diplome!
357.331DE CNUYDT Adrien56BELWIELERTEAM MORE5:00:475:01:104:15 14.1513M3DE PINTETéléchargez votre diplome!
358.89VAN DER GOES Otto35NED5:01:165:01:164:15 14.14152M1HEINENOORDTéléchargez votre diplome!
359.383BOHDANOWICZ Felloe49BEL5:00:275:01:314:15 14.1385M2PAALTéléchargez votre diplome!
360.386FVAN MECHGELEN Leen47BEL5:00:295:01:314:15 14.138DAMDESSELTéléchargez votre diplome!
361.252DRUYTS Ludwig43BELWE RIDE FOR FUN5:01:035:01:354:15 14.1386M2BEERSETéléchargez votre diplome!
362.492VENOT Pierre32BELCT OTTIGNIES5:02:005:02:484:16 14.07153M1Téléchargez votre diplome!
363.273DANS Pierre31BEL5:02:445:02:554:16 14.06154M1ALLEURTéléchargez votre diplome!
364.530TIMMERMANS Peter49NEDBAARS BIKERS5:01:585:02:574:17 14.0687M2Téléchargez votre diplome!
365.546DE BROUWER Corne46NEDBAARS5:01:575:02:574:17 14.0688M2Téléchargez votre diplome!
366.511LIEVIN Bruno27BEL5:02:105:02:584:17 14.0690SENTéléchargez votre diplome!
367.522HACCOUR Michel41BEL5:02:035:03:044:17 14.0689M2Téléchargez votre diplome!
368.234DE KINDER Joan30BEL5:03:185:03:454:17 14.02155M1DENDERMONDETéléchargez votre diplome!
369.235DE SOMERE Didier47BEL5:03:185:03:464:17 14.0290M2GENTBRUGGETéléchargez votre diplome!
370.215VAN DER HOEVEN Lieven34BEL5:04:125:04:184:18 14.00156M1LIEDEKERKETéléchargez votre diplome!
371.130MONPROFIT Steven34BELAFDELING OOST-V5:04:085:04:214:18 14.00157M1DESTELBERGENTéléchargez votre diplome!
372.457ROSIUS Raf38BEL5:03:165:04:264:18 13.99158M1GENKTéléchargez votre diplome!
373.498BOOM Rene36BEL5:03:445:04:364:18 13.99159M1Téléchargez votre diplome!
374.390NYS Peter41BELABC5:03:475:04:374:18 13.9991M2PAALTéléchargez votre diplome!
375.391NYS Chris44BELABC5:03:485:04:384:18 13.9892M2LUMMENTéléchargez votre diplome!
376.225MICHIELS Danny40BEL5:03:445:04:404:18 13.9893M2SPATéléchargez votre diplome!
377.202BARETTE Eric43BELMAZY'S FUN BIKE5:03:405:04:414:18 13.9894M2LIGNYTéléchargez votre diplome!
378.524VANDOOREN Danny29BEL5:04:055:05:224:19 13.9591SENTéléchargez votre diplome!
379.537WOUTERS Rolf29BEL5:05:365:06:214:19 13.9192SENTéléchargez votre diplome!
380.472JOIE Philippe27BEL5:06:395:07:364:20 13.8593SENTéléchargez votre diplome!
381.343DE WOLF Christian47BEL5:06:235:07:364:20 13.8595M2LASNETéléchargez votre diplome!
382.336CAMPS Tim35BEL5:07:485:07:484:21 13.84160M1DIESTTéléchargez votre diplome!
383.437GIET Stephan43BEL5:07:015:07:484:21 13.8496M2GEMMENICHTéléchargez votre diplome!
384.268VAN ACKERE David34BEL5:07:325:07:544:21 13.84161M1LOPPEMTéléchargez votre diplome!
385.304GEERTS Hendrik32BELWTC DE RITSERS5:08:145:08:404:21 13.80162M1SINT-GILLIS (WAAS)Téléchargez votre diplome!
386.274STYNEN Wim40BELLA PIPE5:08:305:09:354:22 13.7697M2STABROEKTéléchargez votre diplome!
387.556FOURNEAU FredericBEL5:08:525:09:364:22 13.766XXXTéléchargez votre diplome!
388.198GREER David30BEL5:10:515:10:514:23 13.70163M1IXELLESTéléchargez votre diplome!
389.518VAN ROY Jordy32BEL5:10:595:11:384:24 13.67164M1Téléchargez votre diplome!
390.110LAURENT Luc41BELBLANCS GILETS 5:14:045:14:224:26 13.5598M2BIERGESTéléchargez votre diplome!
391.474WERY Michel47BELAMB THEUX5:13:335:14:354:26 13.5499M2THEUXTéléchargez votre diplome!
392.412VERHAEGHE Andre49BELRACING CENTER5:13:445:14:364:26 13.54100M2HOBOKENTéléchargez votre diplome!
393.174VAN ES Rob44NED5:14:095:14:374:26 13.54101M2SCHIJNDELTéléchargez votre diplome!
394.454VRACHTEN JohanBEL5:13:305:14:384:26 13.547XXXPAALTéléchargez votre diplome!
395.342LAENEN Marc51BEL5:13:365:14:484:27 13.5314M3OVERIJSETéléchargez votre diplome!
396.562RIXEN Paul45BEL5:13:285:14:494:27 13.53102M2Téléchargez votre diplome!
397.131DE NIEL Lars26BELVZW TREK USA RA5:13:415:14:544:27 13.5394SENDILBEEKTéléchargez votre diplome!
398.195ROOMAN Geert37BEL5:14:515:15:174:27 13.51165M1TEMSETéléchargez votre diplome!
399.125FBERNDS Cynthia26NED5:14:495:15:184:27 13.519DAMDEN HAAGTéléchargez votre diplome!
400.104ALLEMEERSCH Wim31BELADINKERKSE VEL5:15:005:15:304:27 13.50166M1SINT-ANDRIESTéléchargez votre diplome!
DNF: abandon; DSQ: disqualifié; Vitesse en km/h
20/01/2020 - 12:38 - 520 Entrées
ChronoRace - Electronic Timing SPRL
http://www.chronorace.be

Page 8 / 11  
EBBT #3 - Les Cimes de Waimes
VTT Waimes, 01/05/2008, BEL
Les Cimes de Waimes - Classement à l'arrivée
71km 
Catégorie
PosNrNomAgeIOCEquipeRéelTempsTkmMoy.RangNomLocalité
401.297DELAERE Guy28BEL5:15:025:15:314:27 13.5095SENOEDELEMTéléchargez votre diplome!
402.538NOIRFALISE Stephane43BELSPA VTT5:15:575:16:564:28 13.44103M2Téléchargez votre diplome!
403.419AUDENAERT Steven29BEL5:16:185:17:004:28 13.4496SENLOKERENTéléchargez votre diplome!
404.573STORMS Nick23BELCHAMIZO5:16:515:18:014:29 13.4097SENTéléchargez votre diplome!
405.345BOONEN Stephane37BEL5:17:085:18:024:29 13.40167M1THEUXTéléchargez votre diplome!
406.582BLEWANUS Peter39BEL5:19:105:19:104:30 13.35168M1Téléchargez votre diplome!
407.163CONSTANT Albert51BELAMIS VTTISTES5:19:045:19:214:30 13.3415M3HERVETéléchargez votre diplome!
408.306FVAN DE VOORDE Isabel31BEL26 INCH COLLECT5:18:585:19:444:31 13.3210DAMRUISELEDETéléchargez votre diplome!
409.292LAMMENS-FRESON Marc27BEL5:18:545:20:074:31 13.3198SENWANZETéléchargez votre diplome!
410.529ONGENA Marc41BEL5:20:025:21:184:32 13.26104M2Téléchargez votre diplome!
411.429BORREMANS Chris47BEL5:20:265:21:284:32 13.25105M2TREMELOTéléchargez votre diplome!
412.447XHONNEUX Sylvain36BEL5:20:515:21:294:32 13.25169M1MEMBACHTéléchargez votre diplome!
413.455CLOCHET Wim27BEL5:23:035:23:464:34 13.1699SENMARKETéléchargez votre diplome!
414.347COLETTE Pierre51BELREUMONJOIE BIKE5:24:435:25:144:35 13.1016M3BELGRADETéléchargez votre diplome!
415.541LAMBRECHTS Tom31BEL5:23:325:25:164:35 13.10170M1Téléchargez votre diplome!
416.554RARY Didier37BEL5:24:345:25:204:35 13.09171M1Téléchargez votre diplome!
417.332VAN BERGEN Cees54NED5:25:235:25:234:35 13.0917M3WORMERVEERTéléchargez votre diplome!
418.317JELLES Hans44NEDDTC-DRIEBERGEN5:23:275:25:234:35 13.09106M2WORMERVEERTéléchargez votre diplome!
419.495BRAM X26BEL5:25:465:26:454:37 13.04100SENTéléchargez votre diplome!
420.370PRICK Olivier39BEL5:26:165:26:464:37 13.04172M1VIELSALMTéléchargez votre diplome!
421.328DENIS Guy52BELLIENNE CYCLO5:26:245:26:474:37 13.0418M3STAVELOTTéléchargez votre diplome!
422.373OLLERS Michel35NED5:30:025:30:424:40 12.88173M1SINT JOOSTTéléchargez votre diplome!
423.461VAN PELT Peter51BELTRIPPLE BIKERS5:30:135:31:214:41 12.8619M3Téléchargez votre diplome!
424.444LAUWERS LudoBEL5:30:415:31:274:41 12.858XXXTURNHOUTTéléchargez votre diplome!
425.144DEMIERBE Marc46BELSPORTS ET NATUR5:32:425:33:044:42 12.79107M2MALMEDYTéléchargez votre diplome!
426.245DERKSEN Bart27NED5:33:035:33:174:42 12.78101SENULFTTéléchargez votre diplome!
427.246AALDERS Thijs28NED5:33:035:33:174:42 12.78102SENETTENTéléchargez votre diplome!
428.231DONNAY Eric41BELCYCLOSANDENNE5:32:075:33:224:42 12.78108M2ASSESSETéléchargez votre diplome!
429.431NICOLAS Jean-Luc49BEL5:32:595:33:404:42 12.77109M2TARCIENNETéléchargez votre diplome!
430.184VAN BERLAMONT Davy29BELMTB ASPELARE5:33:375:34:564:44 12.72103SENTURNHOUTTéléchargez votre diplome!
431.152MATTHEEUSEN Werner43BELPAPEGAAI BIKE T5:34:075:34:574:44 12.72110M2KAPELLENTéléchargez votre diplome!
432.382AGREDAMO Carlos36BEL5:34:015:34:574:44 12.72174M1MEISETéléchargez votre diplome!
433.258DUPON Peter46BELMTB MC CHOUFFE5:34:425:35:074:44 12.71111M2LEFFINGETéléchargez votre diplome!
434.544VANDERLOCHT Joris29BEL5:35:335:36:164:45 12.67104SENTéléchargez votre diplome!
435.250POIDLINS Didier37BEL5:36:495:37:164:46 12.63175M1AMAYTéléchargez votre diplome!
436.344DELCOMMUNE Karl42BELVTT CLUB MOSAN5:36:485:37:164:46 12.63112M2NANDRINTéléchargez votre diplome!
437.368FNENQUIN Julie30BELCAMELEONBIKE5:37:045:37:194:46 12.6311DAMSCHAERBEEKTéléchargez votre diplome!
438.369SWIJSEN Peter31BEL5:37:045:37:204:46 12.63176M1SCHAERBEEKTéléchargez votre diplome!
439.264NAIMI J-Y38BEL5:37:025:37:224:46 12.63177M1LIEGETéléchargez votre diplome!
440.416DEMARTEAU X34BEL5:37:455:38:404:47 12.58178M1COMBLAIN AU PONTTéléchargez votre diplome!
441.420DAMOISEAU Michel37BEL5:37:445:38:404:47 12.58179M1COMLAIN AU PONTTéléchargez votre diplome!
442.491FNEYRINCK Sofie31BEL26 INCH COLLECT5:38:115:38:574:47 12.5712DAMTéléchargez votre diplome!
443.526WALHIN Etienne43BEL5:38:555:39:374:47 12.54113M2Téléchargez votre diplome!
444.564NIJS JorisBEL5:39:295:40:224:48 12.529XXXTéléchargez votre diplome!
445.550PELLERIAUX Tom30BEL5:39:325:40:254:48 12.51180M1Téléchargez votre diplome!
446.242LOOS Bert37BEL5:40:555:40:554:49 12.50181M1ZONHOVENTéléchargez votre diplome!
447.205GALINSKI Patrick37BEL5:40:595:40:594:49 12.49182M1GENKTéléchargez votre diplome!
448.211TIMMERMANN Christof48GERRSC LOHMAR DE5:42:185:42:484:50 12.43114M2LOHMARTéléchargez votre diplome!
449.506HAMERLINCK Steven34BEL5:41:205:42:544:50 12.42183M1Téléchargez votre diplome!
450.249BENATS Steven35BEL5:43:285:44:434:52 12.36184M1HOEILAARTTéléchargez votre diplome!
DNF: abandon; DSQ: disqualifié; Vitesse en km/h
20/01/2020 - 12:38 - 520 Entrées
ChronoRace - Electronic Timing SPRL
http://www.chronorace.be

Page 9 / 11  
EBBT #3 - Les Cimes de Waimes
VTT Waimes, 01/05/2008, BEL
Les Cimes de Waimes - Classement à l'arrivée
71km 
Catégorie
PosNrNomAgeIOCEquipeRéelTempsTkmMoy.RangNomLocalité
451.394PRAIL Emmanuel35BELTOP CYCLE5:44:295:45:304:52 12.33185M1LIERNUTéléchargez votre diplome!
452.568MATTAYS Arnout31BELDZM5:44:505:45:424:53 12.32186M1Téléchargez votre diplome!
453.185KAISE Daniel46BEL5:46:235:47:234:54 12.26115M2MAZYTéléchargez votre diplome!
454.193LLOBERAS Jaime35BELTOP CYCLE5:46:285:47:234:54 12.26187M1GEMBLOUXTéléchargez votre diplome!
455.251LEMY Yves45BELTOP CYCLE5:46:215:47:244:54 12.26116M2GEMBLOUXTéléchargez votre diplome!
456.329FKOCK Mayke27NEDNSMV VELOCIDAD5:47:145:47:534:54 12.2513DAMNIJMEGENTéléchargez votre diplome!
457.360FRANCK Nico31BELMBCZOENK5:50:465:51:124:57 12.13188M1LEUVENTéléchargez votre diplome!
458.191LAENEN Daniel51BELBLUE RIDERS5:50:145:51:274:57 12.1220M3LINDENTéléchargez votre diplome!
459.583VAN DER JONCKHEYD Lux30BEL5:51:505:51:504:58 12.11189M1Téléchargez votre diplome!
460.338FVAN DER DRIFT Simone24NED5:52:015:52:154:58 12.0914DAMRIDDERKERKTéléchargez votre diplome!
461.229VANHOVE Maurice48BELBLUE RIDERS5:53:275:54:375:00 12.01117M2BIERBEEKTéléchargez votre diplome!
462.192LAENEN David28BELBLUE RIDERS5:53:375:54:505:00 12.01105SENKESSEL-LOTéléchargez votre diplome!
463.578SORBER Ken25BEL5:54:365:55:465:01 11.97106SENTéléchargez votre diplome!
464.350RESTEAU Philippe54BEL5:56:325:57:245:03 11.9221M3WATERLOOTéléchargez votre diplome!
465.552FOURNAUX Rudy42BEL5:57:265:58:095:03 11.89118M2Téléchargez votre diplome!
466.361FLODEWIJCKX Nicky32BELMBCZOENK5:58:385:59:045:04 11.8615DAMHERSELTTéléchargez votre diplome!
467.290DUPONT Nicolas28BEL5:58:005:59:135:04 11.86107SENTILFFTéléchargez votre diplome!
468.352WEERBROUCK Olivier28BELLINGIER VERSLU6:01:176:01:555:06 11.77108SENOOSTENDETéléchargez votre diplome!
469.164FEDRIGO Michael32BEL6:01:386:01:595:06 11.77190M1FRAIPONTTéléchargez votre diplome!
470.176WILMART Geoffrey34BEL6:05:316:05:315:09 11.66191M1HUYTéléchargez votre diplome!
471.313VANBENEDEN Johan39BEL6:11:216:11:555:15 11.45192M1DILBEEKTéléchargez votre diplome!
472.248JANSSENS Michel41BEL6:17:116:17:255:19 11.29119M2VIESVILLETéléchargez votre diplome!
473.435JAMAER Johan45BEL6:17:266:17:575:20 11.27120M2SINT TRUIDENTéléchargez votre diplome!
474.423WOUTERS Johan37BEL6:17:286:18:005:20 11.27193M1SINT TRUIDENTéléchargez votre diplome!
475.434FMOONS Lydia42BEL6:17:356:18:105:20 11.2616DAMSINT TRUIDENTéléchargez votre diplome!
476.579LETOCART Francois42BEL6:28:176:29:395:30 10.93121M2Téléchargez votre diplome!
477.392VAN LOCHEM Christophe41BEL6:58:246:59:075:55 10.16122M2WAIMESTéléchargez votre diplome!
478.307DE WILDE Patrick43BEL7:26:497:28:076:19 9.51123M2VILVOORDETéléchargez votre diplome!
478.309MARCQ Roger37BEL7:26:497:28:076:19 9.51194M1BRUXELLESTéléchargez votre diplome!
DNF29BASTIN Jean41BELTEAM HENKETM2LAMBERMONT
DNF463BASTIN Simon43BELM2LIEGE
DNF507BEAUVOIX Alain48BELAMB THEUXM2
DNF411BEULLENS Gert41BELAFDELING ANTWERM2ONZE-LIEVE-VROUW-WAVER
DNF181BOERMANS Yves40BELUBM2DIEPENBEEK
DNF355DELISEE Franck32BELM1MAUBEUGE
DNF377DELSALLE Jean42BELM2MALMEDY
DNF367DEPREZ Marco33BELM1DIEST
DNF353DUMON Chris32BELM1OUDENBURG
DNF222GELEYN Ronny35BELM1VERREBROEK
DNF378GENTEN Frank35BELM1WAIMES
DNF53GRANDMAIRE Vincent29BELCORRATEC-REUTERSENSTAVELOT
DNF452GUBBELMANS Wendy38BELM1DIEPENBEEK
DNF406GUTKIN Vincent16BELDEB
DNF401HESTERS Tom39BELM1
DNF473HÖNIG Dirk25GERTEAM FIREBIKESEN
DNF395JANS Jan53NEDM3
DNF555KIND Jeanien37NEDM1
DNF375KUPPER Jean-Philippe31GBRM1OVIFAT
DNF408LEMBECK Marius24GERUNIVEGA PRO CYCSEN
DNF161MAHAUX Olivier32BELPREDICTOR-LOTTOM1TROIS-PONTS
DNF: abandon; DSQ: disqualifié; Vitesse en km/h
20/01/2020 - 12:38 - 520 Entrées
ChronoRace - Electronic Timing SPRL
http://www.chronorace.be

Page 10 / 11  
EBBT #3 - Les Cimes de Waimes
VTT Waimes, 01/05/2008, BEL
Les Cimes de Waimes - Classement à l'arrivée
71km 
Catégorie
PosNrNomAgeIOCEquipeRéelTempsTkmMoy.RangNomLocalité
DNF204MERTENS Wim30BELM1MEERHOUT
DNF312FMIKSE Anne41BELDAMHOLSBEEK
DNF574PELSMAEKERS Ben27BELSEN
DNF288PHILIP Jansen37BELM1GEEL
DNF580PIOT Kurt30BELM1
DNF376PIRON Roland65BELM3MONTIGNY LE TILLEUL
DNF142RAEYMAKERS Sten30BELCYCLINGTEAM OOSM1HERENTALS
DNF581RATAJCZAK Sam39BELM1
DNF218RIGA Dominic28BELSENHAM
DNF212ROSE Thomas47GERRV BAMLACHM2BAD BELLINGEN
DNF505SCHEPERS Geert27BELHEYLEN MEUBELCESENBUDINGEN
DNF528SMITZ Wout31BELM1
DNF126STROO Luc45BELAFDELING OOST-VM2ZELZATE
DNF60ULLENS DE SCHOOTEN Thibaut39BELSECTION BRABANTM1PERWEZ
DNF188VAN DER SCHUEREN Benny41BELMTB ASPELAREM2ASPELARE
DNF261VAN LAEKEN Dominiek33BELHEERS MOUNTAINBM1WILDEREN
DNF388VANHOVE Alfons45BELBLUE RIMERM2LEUVEN
DNF25VERBIST Sébastien17BELARDENNES MOUNTAJUNGRAND-RECHAIN
DNF418VON JAGOW Arno37GERTEAM FIREBIKEM1ROETGEN
DNF12ZINKE Heinz49BELM2DEURNE
DNF: abandon; DSQ: disqualifié; Vitesse en km/h
20/01/2020 - 12:38 - 520 Entrées
ChronoRace - Electronic Timing SPRL
http://www.chronorace.be

Page 11 / 11